Shoho No.1 — JD3231 — position and weather

sailwx.info

Track history (hours):
 
Tides and Currents Weather Stations Pressure Air Temp Water Temp Dewpoint Dewpoint Depression Visibility Wind Speed Wind Dir Waves Ship Positions

Shoho No.1

Last reported at 2018-Jul-19 18:51 UTC. Time now 2018-Jul-19 19:17 UTC.
Position N 34°36' E 134°55'.

Length 56 m; draft 3.8 m.

Type: Cargo ship. MMSI: 431002893.

Date/timePositionNaut miles runAvg speedWind from/ knotsBaromVisibWave heightAir tempDewpointWater temp
2018-Jul-19 18:51N 34°36' E 134°55'6 9.2
2018-Jul-19 18:12N 34°40' E 134°50'3 9.9
2018-Jul-19 17:55N 34°43' E 134°48'0 0.0
2018-Jul-19 12:26N 34°43' E 134°49'  
2018-Jul-16 23:01N 34°42' E 134°36'0 0.0
2018-Jul-16 23:01N 34°42' E 134°36'10 2.5
2018-Jul-16 18:52N 34°43' E 134°48'  
2018-Jul-14 04:02N 34°40' E 134°51'0 8.9
2018-Jul-14 03:59N 34°40' E 134°51'4 8.6
2018-Jul-14 03:29N 34°38' E 134°56'5 9.3
2018-Jul-14 02:58N 34°37' E 135°01'4 9.4
2018-Jul-14 02:30N 34°37' E 135°07'611.3
2018-Jul-14 02:00N 34°37' E 135°13'4 8.9
2018-Jul-14 01:30N 34°42' E 135°15'1 1.5
2018-Jul-14 00:59N 34°42' E 135°15'0 0.0
2018-Jul-14 00:29N 34°42' E 135°15'0 0.0
2018-Jul-13 23:59N 34°42' E 135°15'0 0.0
2018-Jul-13 23:29N 34°42' E 135°15'1 1.3
2018-Jul-13 23:00N 34°42' E 135°15'0 0.0
2018-Jul-13 22:24N 34°42' E 135°15'0 0.0
2018-Jul-13 22:00N 34°42' E 135°15'0 0.0
2018-Jul-13 21:30N 34°42' E 135°15'0 0.0
2018-Jul-13 21:00N 34°42' E 135°15'0 0.0
2018-Jul-13 20:30N 34°42' E 135°15'0 0.0
2018-Jul-13 20:00N 34°42' E 135°15'0 0.0
2018-Jul-13 19:30N 34°42' E 135°15'0 0.0
2018-Jul-13 19:00N 34°42' E 135°15'0 0.1
2018-Jul-13 18:30N 34°42' E 135°15'4 8.1
2018-Jul-13 18:00N 34°38' E 135°15'510.1
2018-Jul-13 17:30N 34°36' E 135°09'510.3
2018-Jul-13 17:00N 34°36' E 135°03'611.9
2018-Jul-13 16:29N 34°37' E 134°56'612.2
2018-Jul-13 15:59N 34°40' E 134°50'0 0.0
2018-Jul-12 23:35N 34°40' E 134°50'310.7
2018-Jul-12 23:20N 34°39' E 134°53'411.8
2018-Jul-12 23:00N 34°38' E 134°57'612.6
2018-Jul-12 22:30N 34°36' E 135°04'510.9
2018-Jul-12 22:00N 34°36' E 135°11'511.1
2018-Jul-12 21:31N 34°36' E 135°18'510.4
2018-Jul-12 21:01N 34°36' E 135°24'2 0.5
2018-Jul-12 16:24N 34°35' E 135°26'4 9.4
2018-Jul-12 16:00N 34°36' E 135°22'5 9.5
2018-Jul-12 15:31N 34°36' E 135°17'5 9.3
2018-Jul-12 15:00N 34°35' E 135°11'5 9.9
2018-Jul-12 14:30N 34°35' E 135°05'17 7.8
2018-Jul-12 12:18N 34°32' E 134°44'3 8.1
2018-Jul-12 11:57N 34°31' E 134°41'5 9.1
2018-Jul-12 11:26N 34°29' E 134°36'7 9.2
2018-Jul-12 10:42N 34°26' E 134°28'  
Track history (hours):
 
Tides and Currents Weather Stations Pressure Air Temp Water Temp Dewpoint Dewpoint Depression Visibility Wind Speed Wind Dir Waves Ship Positions

Shoho No.1

Last reported at 2018-Jul-19 18:51 UTC. Time now 2018-Jul-19 19:17 UTC.
Position N 34°36' E 134°55'.

Length 56 m; draft 3.8 m.

Type: Cargo ship. MMSI: 431002893.

Date/timePositionNaut miles runAvg speedWind from/ knotsBaromVisibWave heightAir tempDewpointWater temp
2018-Jul-19 18:51N 34°36' E 134°55'6 9.2
2018-Jul-19 18:12N 34°40' E 134°50'3 9.9
2018-Jul-19 17:55N 34°43' E 134°48'0 0.0
2018-Jul-19 12:26N 34°43' E 134°49'  
2018-Jul-16 23:01N 34°42' E 134°36'0 0.0
2018-Jul-16 23:01N 34°42' E 134°36'10 2.5
2018-Jul-16 18:52N 34°43' E 134°48'  
2018-Jul-14 04:02N 34°40' E 134°51'0 8.9
2018-Jul-14 03:59N 34°40' E 134°51'4 8.6
2018-Jul-14 03:29N 34°38' E 134°56'5 9.3
2018-Jul-14 02:58N 34°37' E 135°01'4 9.4
2018-Jul-14 02:30N 34°37' E 135°07'611.3
2018-Jul-14 02:00N 34°37' E 135°13'4 8.9
2018-Jul-14 01:30N 34°42' E 135°15'1 1.5
2018-Jul-14 00:59N 34°42' E 135°15'0 0.0
2018-Jul-14 00:29N 34°42' E 135°15'0 0.0
2018-Jul-13 23:59N 34°42' E 135°15'0 0.0
2018-Jul-13 23:29N 34°42' E 135°15'1 1.3
2018-Jul-13 23:00N 34°42' E 135°15'0 0.0
2018-Jul-13 22:24N 34°42' E 135°15'0 0.0
2018-Jul-13 22:00N 34°42' E 135°15'0 0.0
2018-Jul-13 21:30N 34°42' E 135°15'0 0.0
2018-Jul-13 21:00N 34°42' E 135°15'0 0.0
2018-Jul-13 20:30N 34°42' E 135°15'0 0.0
2018-Jul-13 20:00N 34°42' E 135°15'0 0.0
2018-Jul-13 19:30N 34°42' E 135°15'0 0.0
2018-Jul-13 19:00N 34°42' E 135°15'0 0.1
2018-Jul-13 18:30N 34°42' E 135°15'4 8.1
2018-Jul-13 18:00N 34°38' E 135°15'510.1
2018-Jul-13 17:30N 34°36' E 135°09'510.3
2018-Jul-13 17:00N 34°36' E 135°03'611.9
2018-Jul-13 16:29N 34°37' E 134°56'612.2
2018-Jul-13 15:59N 34°40' E 134°50'0 0.0
2018-Jul-12 23:35N 34°40' E 134°50'310.7
2018-Jul-12 23:20N 34°39' E 134°53'411.8
2018-Jul-12 23:00N 34°38' E 134°57'612.6
2018-Jul-12 22:30N 34°36' E 135°04'510.9
2018-Jul-12 22:00N 34°36' E 135°11'511.1
2018-Jul-12 21:31N 34°36' E 135°18'510.4
2018-Jul-12 21:01N 34°36' E 135°24'2 0.5
2018-Jul-12 16:24N 34°35' E 135°26'4 9.4
2018-Jul-12 16:00N 34°36' E 135°22'5 9.5
2018-Jul-12 15:31N 34°36' E 135°17'5 9.3
2018-Jul-12 15:00N 34°35' E 135°11'5 9.9
2018-Jul-12 14:30N 34°35' E 135°05'17 7.8
2018-Jul-12 12:18N 34°32' E 134°44'3 8.1
2018-Jul-12 11:57N 34°31' E 134°41'5 9.1
2018-Jul-12 11:26N 34°29' E 134°36'7 9.2
2018-Jul-12 10:42N 34°26' E 134°28'  

Dump ship's entire track history